sensor_id;sensor_type;location;lat;lon;timestamp;P1;durP1;ratioP1;P2;durP2;ratioP2
39924;SDS011;25592;49.986;11.618;2022-09-06T00:02:32;4.07;;;2.95;;
39924;SDS011;25592;49.986;11.618;2022-09-06T00:05:19;4.80;;;3.30;;
39924;SDS011;25592;49.986;11.618;2022-09-06T00:08:05;4.97;;;2.83;;
39924;SDS011;25592;49.986;11.618;2022-09-06T00:10:56;4.55;;;2.97;;
39924;SDS011;25592;49.986;11.618;2022-09-06T00:13:45;5.18;;;3.65;;
39924;SDS011;25592;49.986;11.618;2022-09-06T00:16:31;6.93;;;3.38;;
39924;SDS011;25592;49.986;11.618;2022-09-06T00:19:16;8.02;;;3.72;;
39924;SDS011;25592;49.986;11.618;2022-09-06T00:22:01;5.55;;;3.40;;
39924;SDS011;25592;49.986;11.618;2022-09-06T00:24:47;4.68;;;3.00;;
39924;SDS011;25592;49.986;11.618;2022-09-06T00:27:32;5.05;;;3.35;;
39924;SDS011;25592;49.986;11.618;2022-09-06T00:30:18;4.40;;;3.25;;
39924;SDS011;25592;49.986;11.618;2022-09-06T00:33:04;5.88;;;3.45;;
39924;SDS011;25592;49.986;11.618;2022-09-06T00:35:49;4.97;;;3.33;;
39924;SDS011;25592;49.986;11.618;2022-09-06T00:38:34;6.38;;;3.20;;
39924;SDS011;25592;49.986;11.618;2022-09-06T00:41:20;4.90;;;3.65;;
39924;SDS011;25592;49.986;11.618;2022-09-06T00:44:05;4.53;;;3.35;;
39924;SDS011;25592;49.986;11.618;2022-09-06T00:46:51;6.22;;;3.13;;
39924;SDS011;25592;49.986;11.618;2022-09-06T00:49:39;4.18;;;2.88;;
39924;SDS011;25592;49.986;11.618;2022-09-06T00:52:28;6.57;;;3.28;;
39924;SDS011;25592;49.986;11.618;2022-09-06T00:55:15;4.40;;;3.30;;
39924;SDS011;25592;49.986;11.618;2022-09-06T00:58:01;5.22;;;3.78;;
39924;SDS011;25592;49.986;11.618;2022-09-06T01:00:46;5.82;;;3.42;;
39924;SDS011;25592;49.986;11.618;2022-09-06T01:03:32;5.32;;;3.53;;
39924;SDS011;25592;49.986;11.618;2022-09-06T01:17:55;4.47;;;3.50;;
39924;SDS011;25592;49.986;11.618;2022-09-06T01:29:38;7.65;;;3.88;;
39924;SDS011;25592;49.986;11.618;2022-09-06T01:32:29;4.38;;;3.42;;
39924;SDS011;25592;49.986;11.618;2022-09-06T01:35:54;5.68;;;3.45;;
39924;SDS011;25592;49.986;11.618;2022-09-06T01:38:44;5.38;;;4.07;;
39924;SDS011;25592;49.986;11.618;2022-09-06T01:41:30;5.82;;;4.00;;
39924;SDS011;25592;49.986;11.618;2022-09-06T01:44:16;5.03;;;3.75;;
39924;SDS011;25592;49.986;11.618;2022-09-06T01:56:30;6.53;;;3.67;;
39924;SDS011;25592;49.986;11.618;2022-09-06T02:05:39;4.55;;;3.80;;
39924;SDS011;25592;49.986;11.618;2022-09-06T02:08:32;5.93;;;4.25;;
39924;SDS011;25592;49.986;11.618;2022-09-06T02:11:24;6.03;;;4.38;;
39924;SDS011;25592;49.986;11.618;2022-09-06T02:14:14;5.40;;;4.32;;
39924;SDS011;25592;49.986;11.618;2022-09-06T02:17:03;5.30;;;4.32;;
39924;SDS011;25592;49.986;11.618;2022-09-06T02:19:54;5.57;;;3.97;;
39924;SDS011;25592;49.986;11.618;2022-09-06T02:22:45;5.40;;;4.05;;
39924;SDS011;25592;49.986;11.618;2022-09-06T02:25:37;6.05;;;4.57;;
39924;SDS011;25592;49.986;11.618;2022-09-06T02:28:23;5.00;;;3.83;;
39924;SDS011;25592;49.986;11.618;2022-09-06T02:31:26;5.75;;;4.28;;
39924;SDS011;25592;49.986;11.618;2022-09-06T02:34:14;6.95;;;4.45;;
39924;SDS011;25592;49.986;11.618;2022-09-06T02:37:02;5.60;;;4.55;;
39924;SDS011;25592;49.986;11.618;2022-09-06T02:39:47;6.40;;;4.50;;
39924;SDS011;25592;49.986;11.618;2022-09-06T02:42:33;5.10;;;4.30;;
39924;SDS011;25592;49.986;11.618;2022-09-06T02:45:18;7.18;;;4.32;;
39924;SDS011;25592;49.986;11.618;2022-09-06T02:48:03;7.32;;;4.60;;
39924;SDS011;25592;49.986;11.618;2022-09-06T02:50:49;6.85;;;4.57;;
39924;SDS011;25592;49.986;11.618;2022-09-06T02:53:34;7.45;;;5.03;;
39924;SDS011;25592;49.986;11.618;2022-09-06T02:56:20;7.25;;;5.13;;
39924;SDS011;25592;49.986;11.618;2022-09-06T02:59:05;6.45;;;4.97;;
39924;SDS011;25592;49.986;11.618;2022-09-06T03:01:50;10.05;;;4.57;;
39924;SDS011;25592;49.986;11.618;2022-09-06T03:04:36;7.97;;;4.80;;
39924;SDS011;25592;49.986;11.618;2022-09-06T03:07:21;8.40;;;5.00;;
39924;SDS011;25592;49.986;11.618;2022-09-06T03:10:07;6.53;;;4.90;;
39924;SDS011;25592;49.986;11.618;2022-09-06T03:12:53;6.65;;;5.22;;
39924;SDS011;25592;49.986;11.618;2022-09-06T03:15:38;7.57;;;5.15;;
39924;SDS011;25592;49.986;11.618;2022-09-06T03:18:24;6.10;;;4.65;;
39924;SDS011;25592;49.986;11.618;2022-09-06T03:21:11;5.85;;;4.90;;
39924;SDS011;25592;49.986;11.618;2022-09-06T03:23:56;8.40;;;5.38;;
39924;SDS011;25592;49.986;11.618;2022-09-06T03:26:42;6.68;;;5.15;;
39924;SDS011;25592;49.986;11.618;2022-09-06T03:29:28;7.90;;;5.60;;
39924;SDS011;25592;49.986;11.618;2022-09-06T03:32:13;6.55;;;5.28;;
39924;SDS011;25592;49.986;11.618;2022-09-06T03:34:59;7.03;;;5.53;;
39924;SDS011;25592;49.986;11.618;2022-09-06T03:37:44;7.45;;;5.63;;
39924;SDS011;25592;49.986;11.618;2022-09-06T03:40:30;7.80;;;5.30;;
39924;SDS011;25592;49.986;11.618;2022-09-06T03:43:16;6.75;;;5.15;;
39924;SDS011;25592;49.986;11.618;2022-09-06T03:46:02;7.28;;;5.53;;
39924;SDS011;25592;49.986;11.618;2022-09-06T03:48:47;7.82;;;5.75;;
39924;SDS011;25592;49.986;11.618;2022-09-06T03:51:33;7.75;;;4.78;;
39924;SDS011;25592;49.986;11.618;2022-09-06T03:54:19;9.07;;;5.97;;
39924;SDS011;25592;49.986;11.618;2022-09-06T03:57:04;8.23;;;5.53;;
39924;SDS011;25592;49.986;11.618;2022-09-06T03:59:50;7.88;;;5.68;;
39924;SDS011;25592;49.986;11.618;2022-09-06T04:02:36;8.38;;;6.43;;
39924;SDS011;25592;49.986;11.618;2022-09-06T04:05:21;8.13;;;6.55;;
39924;SDS011;25592;49.986;11.618;2022-09-06T04:08:07;9.20;;;5.68;;
39924;SDS011;25592;49.986;11.618;2022-09-06T04:10:52;9.43;;;6.00;;
39924;SDS011;25592;49.986;11.618;2022-09-06T04:13:38;7.20;;;5.85;;
39924;SDS011;25592;49.986;11.618;2022-09-06T04:16:25;7.43;;;6.03;;
39924;SDS011;25592;49.986;11.618;2022-09-06T04:19:10;6.38;;;5.20;;
39924;SDS011;25592;49.986;11.618;2022-09-06T04:21:56;7.78;;;5.65;;
39924;SDS011;25592;49.986;11.618;2022-09-06T04:24:41;9.93;;;6.05;;
39924;SDS011;25592;49.986;11.618;2022-09-06T04:27:27;10.82;;;6.40;;
39924;SDS011;25592;49.986;11.618;2022-09-06T04:30:12;10.93;;;6.05;;
39924;SDS011;25592;49.986;11.618;2022-09-06T04:32:57;7.20;;;5.95;;
39924;SDS011;25592;49.986;11.618;2022-09-06T04:35:46;7.15;;;6.07;;
39924;SDS011;25592;49.986;11.618;2022-09-06T04:38:34;7.38;;;5.95;;
39924;SDS011;25592;49.986;11.618;2022-09-06T04:41:21;10.35;;;5.78;;
39924;SDS011;25592;49.986;11.618;2022-09-06T04:44:07;8.23;;;6.30;;
39924;SDS011;25592;49.986;11.618;2022-09-06T04:47:02;10.60;;;6.50;;
39924;SDS011;25592;49.986;11.618;2022-09-06T04:49:56;8.23;;;5.85;;
39924;SDS011;25592;49.986;11.618;2022-09-06T04:52:41;8.85;;;6.30;;
39924;SDS011;25592;49.986;11.618;2022-09-06T04:55:27;8.00;;;7.00;;
39924;SDS011;25592;49.986;11.618;2022-09-06T04:58:14;9.05;;;6.75;;
39924;SDS011;25592;49.986;11.618;2022-09-06T05:01:00;8.50;;;6.13;;
39924;SDS011;25592;49.986;11.618;2022-09-06T05:03:45;8.10;;;5.93;;
39924;SDS011;25592;49.986;11.618;2022-09-06T05:06:31;8.43;;;6.50;;
39924;SDS011;25592;49.986;11.618;2022-09-06T05:09:17;10.63;;;6.45;;
39924;SDS011;25592;49.986;11.618;2022-09-06T05:12:02;6.80;;;6.07;;
39924;SDS011;25592;49.986;11.618;2022-09-06T05:14:48;7.55;;;6.55;;
39924;SDS011;25592;49.986;11.618;2022-09-06T05:17:33;8.25;;;6.88;;
39924;SDS011;25592;49.986;11.618;2022-09-06T05:20:19;8.15;;;6.72;;
39924;SDS011;25592;49.986;11.618;2022-09-06T05:23:04;8.73;;;6.40;;
39924;SDS011;25592;49.986;11.618;2022-09-06T05:25:50;10.18;;;6.90;;
39924;SDS011;25592;49.986;11.618;2022-09-06T05:28:35;7.88;;;6.53;;
39924;SDS011;25592;49.986;11.618;2022-09-06T05:31:28;11.02;;;8.57;;
39924;SDS011;25592;49.986;11.618;2022-09-06T05:34:15;8.40;;;6.55;;
39924;SDS011;25592;49.986;11.618;2022-09-06T05:37:00;8.80;;;6.60;;
39924;SDS011;25592;49.986;11.618;2022-09-06T05:39:45;10.50;;;7.45;;
39924;SDS011;25592;49.986;11.618;2022-09-06T05:42:31;8.45;;;7.05;;
39924;SDS011;25592;49.986;11.618;2022-09-06T05:45:16;8.63;;;6.72;;
39924;SDS011;25592;49.986;11.618;2022-09-06T05:48:01;11.63;;;7.10;;
39924;SDS011;25592;49.986;11.618;2022-09-06T05:50:47;8.68;;;6.97;;
39924;SDS011;25592;49.986;11.618;2022-09-06T05:53:42;10.23;;;7.00;;
39924;SDS011;25592;49.986;11.618;2022-09-06T05:56:28;9.90;;;6.80;;
39924;SDS011;25592;49.986;11.618;2022-09-06T05:59:13;10.82;;;6.85;;
39924;SDS011;25592;49.986;11.618;2022-09-06T06:01:59;8.35;;;6.47;;
39924;SDS011;25592;49.986;11.618;2022-09-06T06:04:50;12.05;;;7.07;;
39924;SDS011;25592;49.986;11.618;2022-09-06T06:07:36;9.68;;;6.57;;
39924;SDS011;25592;49.986;11.618;2022-09-06T06:10:21;9.98;;;7.07;;
39924;SDS011;25592;49.986;11.618;2022-09-06T06:13:06;7.30;;;6.10;;
39924;SDS011;25592;49.986;11.618;2022-09-06T06:15:52;11.43;;;6.35;;
39924;SDS011;25592;49.986;11.618;2022-09-06T06:18:37;9.05;;;6.60;;
39924;SDS011;25592;49.986;11.618;2022-09-06T06:24:09;10.25;;;6.72;;
39924;SDS011;25592;49.986;11.618;2022-09-06T06:26:55;9.88;;;7.05;;
39924;SDS011;25592;49.986;11.618;2022-09-06T06:29:40;10.77;;;6.60;;
39924;SDS011;25592;49.986;11.618;2022-09-06T06:32:26;8.65;;;6.22;;
39924;SDS011;25592;49.986;11.618;2022-09-06T06:35:11;7.65;;;6.55;;
39924;SDS011;25592;49.986;11.618;2022-09-06T06:37:56;8.38;;;6.75;;
39924;SDS011;25592;49.986;11.618;2022-09-06T06:40:44;8.40;;;6.15;;
39924;SDS011;25592;49.986;11.618;2022-09-06T06:43:29;10.38;;;6.90;;
39924;SDS011;25592;49.986;11.618;2022-09-06T06:46:20;8.13;;;6.13;;
39924;SDS011;25592;49.986;11.618;2022-09-06T06:49:07;7.90;;;6.38;;
39924;SDS011;25592;49.986;11.618;2022-09-06T06:51:52;8.30;;;6.32;;
39924;SDS011;25592;49.986;11.618;2022-09-06T06:54:38;7.78;;;6.03;;
39924;SDS011;25592;49.986;11.618;2022-09-06T06:57:23;7.68;;;6.28;;
39924;SDS011;25592;49.986;11.618;2022-09-06T07:00:09;9.57;;;5.78;;
39924;SDS011;25592;49.986;11.618;2022-09-06T07:02:55;8.05;;;5.80;;
39924;SDS011;25592;49.986;11.618;2022-09-06T07:05:40;6.30;;;5.00;;
39924;SDS011;25592;49.986;11.618;2022-09-06T07:08:47;10.23;;;6.65;;
39924;SDS011;25592;49.986;11.618;2022-09-06T07:11:32;7.13;;;5.85;;
39924;SDS011;25592;49.986;11.618;2022-09-06T07:14:18;8.90;;;5.40;;
39924;SDS011;25592;49.986;11.618;2022-09-06T07:17:03;8.80;;;5.63;;
39924;SDS011;25592;49.986;11.618;2022-09-06T07:19:53;7.45;;;5.85;;
39924;SDS011;25592;49.986;11.618;2022-09-06T07:22:59;6.65;;;5.13;;
39924;SDS011;25592;49.986;11.618;2022-09-06T07:26:06;6.45;;;4.97;;
39924;SDS011;25592;49.986;11.618;2022-09-06T07:28:52;7.30;;;5.55;;
39924;SDS011;25592;49.986;11.618;2022-09-06T07:31:42;6.82;;;4.72;;
39924;SDS011;25592;49.986;11.618;2022-09-06T07:34:48;6.43;;;5.28;;
39924;SDS011;25592;49.986;11.618;2022-09-06T07:37:33;8.60;;;5.40;;
39924;SDS011;25592;49.986;11.618;2022-09-06T07:40:19;5.55;;;4.68;;
39924;SDS011;25592;49.986;11.618;2022-09-06T07:43:04;5.95;;;5.22;;
39924;SDS011;25592;49.986;11.618;2022-09-06T07:48:48;6.22;;;4.97;;
39924;SDS011;25592;49.986;11.618;2022-09-06T07:51:33;6.65;;;4.97;;
39924;SDS011;25592;49.986;11.618;2022-09-06T07:54:19;9.40;;;5.80;;
39924;SDS011;25592;49.986;11.618;2022-09-06T07:57:20;6.60;;;4.80;;
39924;SDS011;25592;49.986;11.618;2022-09-06T08:00:07;7.03;;;5.38;;
39924;SDS011;25592;49.986;11.618;2022-09-06T08:02:54;6.72;;;5.05;;
39924;SDS011;25592;49.986;11.618;2022-09-06T08:05:39;6.82;;;4.72;;
39924;SDS011;25592;49.986;11.618;2022-09-06T08:08:45;6.10;;;4.80;;
39924;SDS011;25592;49.986;11.618;2022-09-06T08:11:45;7.28;;;4.82;;
39924;SDS011;25592;49.986;11.618;2022-09-06T08:14:34;6.85;;;4.90;;
39924;SDS011;25592;49.986;11.618;2022-09-06T08:17:20;7.00;;;4.63;;
39924;SDS011;25592;49.986;11.618;2022-09-06T08:20:05;7.50;;;5.00;;
39924;SDS011;25592;49.986;11.618;2022-09-06T08:22:51;6.90;;;5.20;;
39924;SDS011;25592;49.986;11.618;2022-09-06T08:25:36;7.05;;;4.70;;
39924;SDS011;25592;49.986;11.618;2022-09-06T08:28:22;8.73;;;5.22;;
39924;SDS011;25592;49.986;11.618;2022-09-06T08:31:13;6.95;;;5.05;;
39924;SDS011;25592;49.986;11.618;2022-09-06T08:34:00;6.22;;;4.88;;
39924;SDS011;25592;49.986;11.618;2022-09-06T08:36:46;7.03;;;4.97;;
39924;SDS011;25592;49.986;11.618;2022-09-06T08:39:31;6.57;;;5.30;;
39924;SDS011;25592;49.986;11.618;2022-09-06T08:42:16;5.88;;;5.00;;
39924;SDS011;25592;49.986;11.618;2022-09-06T08:45:02;6.50;;;5.47;;
39924;SDS011;25592;49.986;11.618;2022-09-06T08:47:52;5.85;;;4.47;;
39924;SDS011;25592;49.986;11.618;2022-09-06T08:50:40;6.47;;;5.18;;
39924;SDS011;25592;49.986;11.618;2022-09-06T08:53:36;6.95;;;4.60;;
39924;SDS011;25592;49.986;11.618;2022-09-06T08:56:31;7.70;;;5.22;;
39924;SDS011;25592;49.986;11.618;2022-09-06T08:59:21;6.70;;;4.97;;
39924;SDS011;25592;49.986;11.618;2022-09-06T09:02:14;9.70;;;4.70;;
39924;SDS011;25592;49.986;11.618;2022-09-06T09:05:03;6.55;;;4.57;;
39924;SDS011;25592;49.986;11.618;2022-09-06T09:11:13;5.95;;;4.80;;
39924;SDS011;25592;49.986;11.618;2022-09-06T09:14:05;6.47;;;4.40;;
39924;SDS011;25592;49.986;11.618;2022-09-06T09:17:02;5.03;;;4.40;;
39924;SDS011;25592;49.986;11.618;2022-09-06T09:19:54;6.85;;;4.60;;
39924;SDS011;25592;49.986;11.618;2022-09-06T09:22:40;6.00;;;4.30;;
39924;SDS011;25592;49.986;11.618;2022-09-06T09:25:27;7.53;;;4.53;;
39924;SDS011;25592;49.986;11.618;2022-09-06T09:28:16;6.45;;;4.68;;
39924;SDS011;25592;49.986;11.618;2022-09-06T09:31:03;4.68;;;4.18;;
39924;SDS011;25592;49.986;11.618;2022-09-06T09:33:51;5.90;;;4.57;;
39924;SDS011;25592;49.986;11.618;2022-09-06T09:36:37;7.80;;;4.60;;
39924;SDS011;25592;49.986;11.618;2022-09-06T09:39:23;5.28;;;4.07;;
39924;SDS011;25592;49.986;11.618;2022-09-06T09:42:23;6.22;;;4.85;;
39924;SDS011;25592;49.986;11.618;2022-09-06T09:45:38;5.38;;;4.03;;
39924;SDS011;25592;49.986;11.618;2022-09-06T09:48:25;12.02;;;4.20;;
39924;SDS011;25592;49.986;11.618;2022-09-06T09:51:19;4.47;;;3.92;;
39924;SDS011;25592;49.986;11.618;2022-09-06T09:54:15;5.90;;;4.70;;
39924;SDS011;25592;49.986;11.618;2022-09-06T09:57:18;7.68;;;4.10;;
39924;SDS011;25592;49.986;11.618;2022-09-06T10:00:03;5.55;;;4.47;;
39924;SDS011;25592;49.986;11.618;2022-09-06T10:02:56;8.40;;;4.57;;
39924;SDS011;25592;49.986;11.618;2022-09-06T10:05:42;6.90;;;5.10;;
39924;SDS011;25592;49.986;11.618;2022-09-06T10:08:46;7.05;;;4.68;;
39924;SDS011;25592;49.986;11.618;2022-09-06T10:11:39;5.85;;;4.32;;
39924;SDS011;25592;49.986;11.618;2022-09-06T10:14:43;6.43;;;4.63;;
39924;SDS011;25592;49.986;11.618;2022-09-06T10:17:37;7.75;;;4.38;;
39924;SDS011;25592;49.986;11.618;2022-09-06T10:20:40;6.53;;;4.45;;
39924;SDS011;25592;49.986;11.618;2022-09-06T10:24:05;5.40;;;4.25;;
39924;SDS011;25592;49.986;11.618;2022-09-06T10:27:09;5.93;;;4.60;;
39924;SDS011;25592;49.986;11.618;2022-09-06T10:32:47;5.07;;;4.20;;
39924;SDS011;25592;49.986;11.618;2022-09-06T10:35:39;7.60;;;4.90;;
39924;SDS011;25592;49.986;11.618;2022-09-06T10:38:35;5.30;;;4.25;;
39924;SDS011;25592;49.986;11.618;2022-09-06T10:47:30;6.85;;;4.47;;
39924;SDS011;25592;49.986;11.618;2022-09-06T10:50:27;16.02;;;5.88;;
39924;SDS011;25592;49.986;11.618;2022-09-06T10:53:21;10.40;;;4.78;;
39924;SDS011;25592;49.986;11.618;2022-09-06T11:02:38;6.05;;;4.50;;
39924;SDS011;25592;49.986;11.618;2022-09-06T11:06:09;5.05;;;4.10;;
39924;SDS011;25592;49.986;11.618;2022-09-06T11:09:08;6.10;;;4.00;;
39924;SDS011;25592;49.986;11.618;2022-09-06T11:15:13;6.55;;;4.07;;
39924;SDS011;25592;49.986;11.618;2022-09-06T11:18:04;5.93;;;3.80;;
39924;SDS011;25592;49.986;11.618;2022-09-06T11:30:15;7.47;;;3.58;;
39924;SDS011;25592;49.986;11.618;2022-09-06T11:36:16;6.00;;;3.63;;
39924;SDS011;25592;49.986;11.618;2022-09-06T11:39:25;6.22;;;3.97;;
39924;SDS011;25592;49.986;11.618;2022-09-06T11:45:49;6.13;;;3.83;;
39924;SDS011;25592;49.986;11.618;2022-09-06T11:48:47;5.22;;;3.55;;
39924;SDS011;25592;49.986;11.618;2022-09-06T11:51:43;10.57;;;3.47;;
39924;SDS011;25592;49.986;11.618;2022-09-06T11:54:40;5.38;;;4.00;;
39924;SDS011;25592;49.986;11.618;2022-09-06T11:57:28;4.68;;;3.20;;
39924;SDS011;25592;49.986;11.618;2022-09-06T12:00:18;6.40;;;3.38;;
39924;SDS011;25592;49.986;11.618;2022-09-06T12:03:08;6.85;;;4.38;;
39924;SDS011;25592;49.986;11.618;2022-09-06T12:09:40;6.40;;;3.78;;
39924;SDS011;25592;49.986;11.618;2022-09-06T12:12:43;5.22;;;3.35;;
39924;SDS011;25592;49.986;11.618;2022-09-06T12:15:43;5.00;;;3.50;;
39924;SDS011;25592;49.986;11.618;2022-09-06T12:21:34;5.18;;;3.33;;
39924;SDS011;25592;49.986;11.618;2022-09-06T12:27:19;5.38;;;3.05;;
39924;SDS011;25592;49.986;11.618;2022-09-06T12:30:11;4.10;;;3.35;;
39924;SDS011;25592;49.986;11.618;2022-09-06T12:33:15;6.28;;;3.58;;
39924;SDS011;25592;49.986;11.618;2022-09-06T12:36:17;13.65;;;3.90;;
39924;SDS011;25592;49.986;11.618;2022-09-06T12:39:13;4.60;;;3.53;;
39924;SDS011;25592;49.986;11.618;2022-09-06T12:42:00;7.97;;;3.65;;
39924;SDS011;25592;49.986;11.618;2022-09-06T12:44:46;6.45;;;3.65;;
39924;SDS011;25592;49.986;11.618;2022-09-06T12:47:35;7.57;;;3.22;;
39924;SDS011;25592;49.986;11.618;2022-09-06T12:50:24;9.98;;;3.50;;
39924;SDS011;25592;49.986;11.618;2022-09-06T12:53:20;4.40;;;3.20;;
39924;SDS011;25592;49.986;11.618;2022-09-06T12:56:09;5.22;;;3.00;;
39924;SDS011;25592;49.986;11.618;2022-09-06T12:59:18;6.90;;;3.55;;
39924;SDS011;25592;49.986;11.618;2022-09-06T13:02:07;5.10;;;3.47;;
39924;SDS011;25592;49.986;11.618;2022-09-06T13:05:02;8.20;;;3.38;;
39924;SDS011;25592;49.986;11.618;2022-09-06T13:07:53;4.10;;;3.10;;
39924;SDS011;25592;49.986;11.618;2022-09-06T13:10:43;6.43;;;3.05;;
39924;SDS011;25592;49.986;11.618;2022-09-06T13:13:30;5.30;;;2.75;;
39924;SDS011;25592;49.986;11.618;2022-09-06T13:16:19;4.40;;;3.20;;
39924;SDS011;25592;49.986;11.618;2022-09-06T13:19:17;4.28;;;2.70;;
39924;SDS011;25592;49.986;11.618;2022-09-06T13:22:35;6.82;;;3.40;;
39924;SDS011;25592;49.986;11.618;2022-09-06T13:25:23;6.45;;;3.63;;
39924;SDS011;25592;49.986;11.618;2022-09-06T13:28:09;6.10;;;3.00;;
39924;SDS011;25592;49.986;11.618;2022-09-06T13:33:57;9.20;;;3.28;;
39924;SDS011;25592;49.986;11.618;2022-09-06T13:36:46;6.57;;;2.80;;
39924;SDS011;25592;49.986;11.618;2022-09-06T13:39:37;4.95;;;2.95;;
39924;SDS011;25592;49.986;11.618;2022-09-06T13:42:28;5.47;;;3.00;;
39924;SDS011;25592;49.986;11.618;2022-09-06T13:45:27;5.53;;;2.70;;
39924;SDS011;25592;49.986;11.618;2022-09-06T13:48:13;4.32;;;2.55;;
39924;SDS011;25592;49.986;11.618;2022-09-06T13:51:12;4.72;;;2.90;;
39924;SDS011;25592;49.986;11.618;2022-09-06T13:56:49;3.70;;;2.50;;
39924;SDS011;25592;49.986;11.618;2022-09-06T13:59:35;7.28;;;3.10;;
39924;SDS011;25592;49.986;11.618;2022-09-06T14:02:20;7.88;;;3.00;;
39924;SDS011;25592;49.986;11.618;2022-09-06T14:05:06;5.22;;;2.70;;
39924;SDS011;25592;49.986;11.618;2022-09-06T14:07:51;5.55;;;3.03;;
39924;SDS011;25592;49.986;11.618;2022-09-06T14:10:37;6.82;;;3.45;;
39924;SDS011;25592;49.986;11.618;2022-09-06T14:13:22;4.82;;;3.03;;
39924;SDS011;25592;49.986;11.618;2022-09-06T14:16:08;4.82;;;3.10;;
39924;SDS011;25592;49.986;11.618;2022-09-06T14:18:54;4.32;;;2.72;;
39924;SDS011;25592;49.986;11.618;2022-09-06T14:21:39;3.65;;;2.53;;
39924;SDS011;25592;49.986;11.618;2022-09-06T14:24:25;5.65;;;3.22;;
39924;SDS011;25592;49.986;11.618;2022-09-06T14:27:10;7.35;;;3.05;;
39924;SDS011;25592;49.986;11.618;2022-09-06T14:29:55;5.07;;;2.97;;
39924;SDS011;25592;49.986;11.618;2022-09-06T14:32:41;4.63;;;2.78;;
39924;SDS011;25592;49.986;11.618;2022-09-06T14:35:27;9.93;;;3.38;;
39924;SDS011;25592;49.986;11.618;2022-09-06T14:38:12;5.30;;;2.55;;
39924;SDS011;25592;49.986;11.618;2022-09-06T14:41:01;16.65;;;3.80;;
39924;SDS011;25592;49.986;11.618;2022-09-06T14:43:49;4.90;;;2.40;;
39924;SDS011;25592;49.986;11.618;2022-09-06T14:46:36;6.63;;;2.78;;
39924;SDS011;25592;49.986;11.618;2022-09-06T14:49:22;6.78;;;2.60;;
39924;SDS011;25592;49.986;11.618;2022-09-06T14:52:08;4.50;;;2.72;;
39924;SDS011;25592;49.986;11.618;2022-09-06T14:54:53;4.28;;;2.83;;
39924;SDS011;25592;49.986;11.618;2022-09-06T14:57:39;5.30;;;3.20;;
39924;SDS011;25592;49.986;11.618;2022-09-06T15:00:24;6.55;;;3.05;;
39924;SDS011;25592;49.986;11.618;2022-09-06T15:03:10;7.03;;;2.58;;
39924;SDS011;25592;49.986;11.618;2022-09-06T15:05:55;5.53;;;2.63;;
39924;SDS011;25592;49.986;11.618;2022-09-06T15:08:41;6.57;;;2.95;;
39924;SDS011;25592;49.986;11.618;2022-09-06T15:11:30;5.45;;;2.80;;
39924;SDS011;25592;49.986;11.618;2022-09-06T15:17:04;6.05;;;2.90;;
39924;SDS011;25592;49.986;11.618;2022-09-06T15:19:52;5.68;;;2.42;;
39924;SDS011;25592;49.986;11.618;2022-09-06T15:22:38;5.18;;;2.38;;
39924;SDS011;25592;49.986;11.618;2022-09-06T15:25:23;3.70;;;2.30;;
39924;SDS011;25592;49.986;11.618;2022-09-06T15:28:08;6.80;;;2.40;;
39924;SDS011;25592;49.986;11.618;2022-09-06T15:30:54;5.75;;;2.50;;
39924;SDS011;25592;49.986;11.618;2022-09-06T15:33:40;4.65;;;2.80;;
39924;SDS011;25592;49.986;11.618;2022-09-06T15:36:25;5.97;;;2.70;;
39924;SDS011;25592;49.986;11.618;2022-09-06T15:39:11;4.95;;;2.58;;
39924;SDS011;25592;49.986;11.618;2022-09-06T15:41:57;7.70;;;2.83;;
39924;SDS011;25592;49.986;11.618;2022-09-06T15:44:43;7.45;;;2.85;;
39924;SDS011;25592;49.986;11.618;2022-09-06T15:47:28;6.43;;;2.65;;
39924;SDS011;25592;49.986;11.618;2022-09-06T15:50:13;5.35;;;2.40;;
39924;SDS011;25592;49.986;11.618;2022-09-06T15:53:19;4.80;;;2.75;;
39924;SDS011;25592;49.986;11.618;2022-09-06T15:56:05;4.00;;;2.38;;
39924;SDS011;25592;49.986;11.618;2022-09-06T15:58:51;8.68;;;2.60;;
39924;SDS011;25592;49.986;11.618;2022-09-06T16:01:37;5.10;;;2.55;;
39924;SDS011;25592;49.986;11.618;2022-09-06T16:04:23;3.55;;;2.10;;
39924;SDS011;25592;49.986;11.618;2022-09-06T16:07:08;7.07;;;2.58;;
39924;SDS011;25592;49.986;11.618;2022-09-06T16:09:53;4.15;;;2.28;;
39924;SDS011;25592;49.986;11.618;2022-09-06T16:12:39;6.22;;;2.70;;
39924;SDS011;25592;49.986;11.618;2022-09-06T16:15:25;5.10;;;2.30;;
39924;SDS011;25592;49.986;11.618;2022-09-06T16:18:11;6.70;;;2.40;;
39924;SDS011;25592;49.986;11.618;2022-09-06T16:20:56;6.30;;;2.42;;
39924;SDS011;25592;49.986;11.618;2022-09-06T16:23:42;5.07;;;2.33;;
39924;SDS011;25592;49.986;11.618;2022-09-06T16:26:34;7.90;;;3.07;;
39924;SDS011;25592;49.986;11.618;2022-09-06T16:29:20;9.40;;;3.97;;
39924;SDS011;25592;49.986;11.618;2022-09-06T16:32:05;4.10;;;2.40;;
39924;SDS011;25592;49.986;11.618;2022-09-06T16:34:51;4.20;;;2.60;;
39924;SDS011;25592;49.986;11.618;2022-09-06T16:37:36;4.82;;;2.60;;
39924;SDS011;25592;49.986;11.618;2022-09-06T16:40:22;7.38;;;3.33;;
39924;SDS011;25592;49.986;11.618;2022-09-06T16:43:07;8.48;;;4.95;;
39924;SDS011;25592;49.986;11.618;2022-09-06T16:45:56;6.75;;;3.35;;
39924;SDS011;25592;49.986;11.618;2022-09-06T16:48:42;8.45;;;3.70;;
39924;SDS011;25592;49.986;11.618;2022-09-06T16:51:34;6.85;;;3.65;;
39924;SDS011;25592;49.986;11.618;2022-09-06T16:54:19;5.18;;;3.88;;
39924;SDS011;25592;49.986;11.618;2022-09-06T16:57:05;5.60;;;3.35;;
39924;SDS011;25592;49.986;11.618;2022-09-06T16:59:50;5.57;;;4.15;;
39924;SDS011;25592;49.986;11.618;2022-09-06T17:02:36;5.18;;;3.55;;
39924;SDS011;25592;49.986;11.618;2022-09-06T17:05:22;4.93;;;3.75;;
39924;SDS011;25592;49.986;11.618;2022-09-06T17:08:07;4.78;;;3.80;;
39924;SDS011;25592;49.986;11.618;2022-09-06T17:10:53;8.75;;;3.75;;
39924;SDS011;25592;49.986;11.618;2022-09-06T17:13:38;6.90;;;3.83;;
39924;SDS011;25592;49.986;11.618;2022-09-06T17:16:24;4.93;;;3.40;;
39924;SDS011;25592;49.986;11.618;2022-09-06T17:19:29;8.93;;;3.70;;
39924;SDS011;25592;49.986;11.618;2022-09-06T17:22:15;8.02;;;3.78;;
39924;SDS011;25592;49.986;11.618;2022-09-06T17:25:01;4.68;;;3.70;;
39924;SDS011;25592;49.986;11.618;2022-09-06T17:27:47;5.97;;;4.20;;
39924;SDS011;25592;49.986;11.618;2022-09-06T17:30:36;8.65;;;4.43;;
39924;SDS011;25592;49.986;11.618;2022-09-06T17:33:23;4.70;;;4.18;;
39924;SDS011;25592;49.986;11.618;2022-09-06T17:36:10;6.75;;;3.63;;
39924;SDS011;25592;49.986;11.618;2022-09-06T17:39:07;6.22;;;4.22;;
39924;SDS011;25592;49.986;11.618;2022-09-06T17:41:54;5.60;;;3.90;;
39924;SDS011;25592;49.986;11.618;2022-09-06T17:44:39;8.35;;;4.03;;
39924;SDS011;25592;49.986;11.618;2022-09-06T17:47:25;7.80;;;4.30;;
39924;SDS011;25592;49.986;11.618;2022-09-06T17:50:10;5.85;;;4.10;;
39924;SDS011;25592;49.986;11.618;2022-09-06T17:52:55;6.57;;;4.13;;
39924;SDS011;25592;49.986;11.618;2022-09-06T17:55:41;8.57;;;4.30;;
39924;SDS011;25592;49.986;11.618;2022-09-06T17:58:28;8.57;;;4.35;;
39924;SDS011;25592;49.986;11.618;2022-09-06T18:01:13;8.85;;;4.40;;
39924;SDS011;25592;49.986;11.618;2022-09-06T18:03:59;5.00;;;4.05;;
39924;SDS011;25592;49.986;11.618;2022-09-06T18:06:44;10.63;;;4.18;;
39924;SDS011;25592;49.986;11.618;2022-09-06T18:09:31;5.72;;;4.78;;
39924;SDS011;25592;49.986;11.618;2022-09-06T18:12:16;10.02;;;4.38;;
39924;SDS011;25592;49.986;11.618;2022-09-06T18:15:03;5.75;;;3.80;;
39924;SDS011;25592;49.986;11.618;2022-09-06T18:17:50;6.97;;;4.47;;
39924;SDS011;25592;49.986;11.618;2022-09-06T18:20:35;7.15;;;4.90;;